sensor_id;sensor_type;location;lat;lon;timestamp;temperature;humidity
19330;DHT22;9799;48.214;16.388;2024-03-02T00:01:52;9.50;99.90
19330;DHT22;9799;48.214;16.388;2024-03-02T00:05:14;9.50;99.90
19330;DHT22;9799;48.214;16.388;2024-03-02T00:08:35;9.50;99.90
19330;DHT22;9799;48.214;16.388;2024-03-02T00:12:00;9.60;99.90
19330;DHT22;9799;48.214;16.388;2024-03-02T00:15:42;9.50;99.90
19330;DHT22;9799;48.214;16.388;2024-03-02T00:19:07;9.60;99.90
19330;DHT22;9799;48.214;16.388;2024-03-02T00:22:30;9.70;99.90
19330;DHT22;9799;48.214;16.388;2024-03-02T00:25:52;9.60;99.90
19330;DHT22;9799;48.214;16.388;2024-03-02T00:29:15;9.60;99.90
19330;DHT22;9799;48.214;16.388;2024-03-02T00:32:43;9.60;99.90
19330;DHT22;9799;48.214;16.388;2024-03-02T00:36:05;9.50;99.90
19330;DHT22;9799;48.214;16.388;2024-03-02T00:39:26;9.40;99.90
19330;DHT22;9799;48.214;16.388;2024-03-02T00:42:48;9.40;99.90
19330;DHT22;9799;48.214;16.388;2024-03-02T00:46:11;9.50;99.90
19330;DHT22;9799;48.214;16.388;2024-03-02T00:49:33;9.30;99.90
19330;DHT22;9799;48.214;16.388;2024-03-02T00:52:55;9.30;99.90
19330;DHT22;9799;48.214;16.388;2024-03-02T00:56:16;9.20;99.90
19330;DHT22;9799;48.214;16.388;2024-03-02T00:59:37;9.10;99.90
19330;DHT22;9799;48.214;16.388;2024-03-02T01:02:58;9.10;99.90
19330;DHT22;9799;48.214;16.388;2024-03-02T01:06:21;9.20;99.90
19330;DHT22;9799;48.214;16.388;2024-03-02T01:09:42;9.40;99.90
19330;DHT22;9799;48.214;16.388;2024-03-02T01:13:05;9.20;99.90
19330;DHT22;9799;48.214;16.388;2024-03-02T01:16:26;9.10;99.90
19330;DHT22;9799;48.214;16.388;2024-03-02T01:19:47;9.10;99.90
19330;DHT22;9799;48.214;16.388;2024-03-02T01:23:09;9.10;99.90
19330;DHT22;9799;48.214;16.388;2024-03-02T01:26:31;9.10;99.90
19330;DHT22;9799;48.214;16.388;2024-03-02T01:29:52;9.00;99.90
19330;DHT22;9799;48.214;16.388;2024-03-02T01:33:14;8.90;99.90
19330;DHT22;9799;48.214;16.388;2024-03-02T01:36:35;8.80;99.90
19330;DHT22;9799;48.214;16.388;2024-03-02T01:39:58;8.70;99.90
19330;DHT22;9799;48.214;16.388;2024-03-02T01:43:19;8.70;99.90
19330;DHT22;9799;48.214;16.388;2024-03-02T01:46:40;8.70;99.90
19330;DHT22;9799;48.214;16.388;2024-03-02T01:50:01;8.70;99.90
19330;DHT22;9799;48.214;16.388;2024-03-02T01:53:23;8.80;99.90
19330;DHT22;9799;48.214;16.388;2024-03-02T01:56:45;8.80;99.90
19330;DHT22;9799;48.214;16.388;2024-03-02T02:00:08;8.70;99.90
19330;DHT22;9799;48.214;16.388;2024-03-02T02:03:29;8.70;99.90
19330;DHT22;9799;48.214;16.388;2024-03-02T02:06:50;8.70;99.90
19330;DHT22;9799;48.214;16.388;2024-03-02T02:10:11;8.60;99.90
19330;DHT22;9799;48.214;16.388;2024-03-02T02:13:34;8.60;99.90
19330;DHT22;9799;48.214;16.388;2024-03-02T02:16:55;8.60;99.90
19330;DHT22;9799;48.214;16.388;2024-03-02T02:20:17;8.60;99.90
19330;DHT22;9799;48.214;16.388;2024-03-02T02:23:40;8.50;99.90
19330;DHT22;9799;48.214;16.388;2024-03-02T02:27:06;8.50;99.90
19330;DHT22;9799;48.214;16.388;2024-03-02T02:30:30;8.50;99.90
19330;DHT22;9799;48.214;16.388;2024-03-02T02:33:51;8.50;99.90
19330;DHT22;9799;48.214;16.388;2024-03-02T02:37:12;8.50;99.90
19330;DHT22;9799;48.214;16.388;2024-03-02T02:40:35;8.50;99.90
19330;DHT22;9799;48.214;16.388;2024-03-02T02:43:56;8.50;99.90
19330;DHT22;9799;48.214;16.388;2024-03-02T02:47:17;8.40;99.90
19330;DHT22;9799;48.214;16.388;2024-03-02T02:50:38;8.50;99.90
19330;DHT22;9799;48.214;16.388;2024-03-02T02:53:59;8.40;99.90
19330;DHT22;9799;48.214;16.388;2024-03-02T02:57:22;8.40;99.90
19330;DHT22;9799;48.214;16.388;2024-03-02T03:00:43;8.40;99.90
19330;DHT22;9799;48.214;16.388;2024-03-02T03:04:04;8.40;99.90
19330;DHT22;9799;48.214;16.388;2024-03-02T03:07:25;8.30;99.90
19330;DHT22;9799;48.214;16.388;2024-03-02T03:10:46;8.30;99.90
19330;DHT22;9799;48.214;16.388;2024-03-02T03:14:09;8.50;99.90
19330;DHT22;9799;48.214;16.388;2024-03-02T03:17:30;8.40;99.90
19330;DHT22;9799;48.214;16.388;2024-03-02T03:20:51;8.40;99.90
19330;DHT22;9799;48.214;16.388;2024-03-02T03:24:12;8.30;99.90
19330;DHT22;9799;48.214;16.388;2024-03-02T03:27:33;8.30;99.90
19330;DHT22;9799;48.214;16.388;2024-03-02T03:30:56;8.30;99.90
19330;DHT22;9799;48.214;16.388;2024-03-02T03:34:17;8.20;99.90
19330;DHT22;9799;48.214;16.388;2024-03-02T03:37:38;8.10;99.90
19330;DHT22;9799;48.214;16.388;2024-03-02T03:40:59;8.10;99.90
19330;DHT22;9799;48.214;16.388;2024-03-02T03:44:20;8.10;99.90
19330;DHT22;9799;48.214;16.388;2024-03-02T03:47:43;8.10;99.90
19330;DHT22;9799;48.214;16.388;2024-03-02T03:51:04;8.00;99.90
19330;DHT22;9799;48.214;16.388;2024-03-02T03:54:25;8.00;99.90
19330;DHT22;9799;48.214;16.388;2024-03-02T03:57:46;8.00;99.90
19330;DHT22;9799;48.214;16.388;2024-03-02T04:01:07;8.10;99.90
19330;DHT22;9799;48.214;16.388;2024-03-02T04:04:30;8.00;99.90
19330;DHT22;9799;48.214;16.388;2024-03-02T04:07:51;8.00;99.90
19330;DHT22;9799;48.214;16.388;2024-03-02T04:11:12;8.00;99.90
19330;DHT22;9799;48.214;16.388;2024-03-02T04:14:34;8.10;99.90
19330;DHT22;9799;48.214;16.388;2024-03-02T04:17:55;8.10;99.90
19330;DHT22;9799;48.214;16.388;2024-03-02T04:21:17;8.00;99.90
19330;DHT22;9799;48.214;16.388;2024-03-02T04:24:38;7.90;99.90
19330;DHT22;9799;48.214;16.388;2024-03-02T04:28:00;7.80;99.90
19330;DHT22;9799;48.214;16.388;2024-03-02T04:31:21;7.90;99.90
19330;DHT22;9799;48.214;16.388;2024-03-02T04:34:43;7.80;99.90
19330;DHT22;9799;48.214;16.388;2024-03-02T04:38:05;7.70;99.90
19330;DHT22;9799;48.214;16.388;2024-03-02T04:41:26;7.70;99.90
19330;DHT22;9799;48.214;16.388;2024-03-02T04:44:47;7.70;99.90
19330;DHT22;9799;48.214;16.388;2024-03-02T04:48:09;7.60;99.90
19330;DHT22;9799;48.214;16.388;2024-03-02T04:51:30;7.50;99.90
19330;DHT22;9799;48.214;16.388;2024-03-02T04:54:52;7.50;99.90
19330;DHT22;9799;48.214;16.388;2024-03-02T04:58:49;7.40;99.90
19330;DHT22;9799;48.214;16.388;2024-03-02T05:02:10;7.30;99.90
19330;DHT22;9799;48.214;16.388;2024-03-02T05:05:33;7.30;99.90
19330;DHT22;9799;48.214;16.388;2024-03-02T05:08:55;7.30;99.90
19330;DHT22;9799;48.214;16.388;2024-03-02T05:12:17;7.20;99.90
19330;DHT22;9799;48.214;16.388;2024-03-02T05:16:07;7.30;99.90
19330;DHT22;9799;48.214;16.388;2024-03-02T05:19:28;7.20;99.90
19330;DHT22;9799;48.214;16.388;2024-03-02T05:22:49;7.20;99.90
19330;DHT22;9799;48.214;16.388;2024-03-02T05:26:10;7.20;99.90
19330;DHT22;9799;48.214;16.388;2024-03-02T05:29:34;7.00;99.90
19330;DHT22;9799;48.214;16.388;2024-03-02T05:32:55;7.00;99.90
19330;DHT22;9799;48.214;16.388;2024-03-02T05:36:16;7.10;99.90
19330;DHT22;9799;48.214;16.388;2024-03-02T05:39:37;7.00;99.90
19330;DHT22;9799;48.214;16.388;2024-03-02T05:42:58;7.00;99.90
19330;DHT22;9799;48.214;16.388;2024-03-02T05:46:20;6.90;99.90
19330;DHT22;9799;48.214;16.388;2024-03-02T05:49:42;6.90;99.90
19330;DHT22;9799;48.214;16.388;2024-03-02T05:53:04;6.90;99.90
19330;DHT22;9799;48.214;16.388;2024-03-02T05:56:25;6.80;99.90
19330;DHT22;9799;48.214;16.388;2024-03-02T05:59:46;6.80;99.90
19330;DHT22;9799;48.214;16.388;2024-03-02T06:03:09;6.70;99.90
19330;DHT22;9799;48.214;16.388;2024-03-02T06:06:30;6.80;99.90
19330;DHT22;9799;48.214;16.388;2024-03-02T06:09:52;6.70;99.90
19330;DHT22;9799;48.214;16.388;2024-03-02T06:13:13;6.70;99.90
19330;DHT22;9799;48.214;16.388;2024-03-02T06:16:34;6.70;99.90
19330;DHT22;9799;48.214;16.388;2024-03-02T06:19:57;6.80;99.90
19330;DHT22;9799;48.214;16.388;2024-03-02T06:23:18;6.90;99.90
19330;DHT22;9799;48.214;16.388;2024-03-02T06:26:39;6.90;99.90
19330;DHT22;9799;48.214;16.388;2024-03-02T06:30:01;7.00;99.90
19330;DHT22;9799;48.214;16.388;2024-03-02T06:33:23;7.10;99.90
19330;DHT22;9799;48.214;16.388;2024-03-02T06:36:46;7.20;99.90
19330;DHT22;9799;48.214;16.388;2024-03-02T06:40:08;7.00;99.90
19330;DHT22;9799;48.214;16.388;2024-03-02T06:43:29;7.10;99.90
19330;DHT22;9799;48.214;16.388;2024-03-02T06:46:50;7.10;99.90
19330;DHT22;9799;48.214;16.388;2024-03-02T06:50:12;7.10;99.90
19330;DHT22;9799;48.214;16.388;2024-03-02T06:53:34;7.20;99.90
19330;DHT22;9799;48.214;16.388;2024-03-02T06:56:55;7.30;99.90
19330;DHT22;9799;48.214;16.388;2024-03-02T07:00:17;7.50;99.90
19330;DHT22;9799;48.214;16.388;2024-03-02T07:03:40;7.70;99.90
19330;DHT22;9799;48.214;16.388;2024-03-02T07:07:01;7.50;99.90
19330;DHT22;9799;48.214;16.388;2024-03-02T07:10:24;7.60;99.90
19330;DHT22;9799;48.214;16.388;2024-03-02T07:13:45;7.50;99.90
19330;DHT22;9799;48.214;16.388;2024-03-02T07:17:06;7.50;99.90
19330;DHT22;9799;48.214;16.388;2024-03-02T07:20:27;7.60;99.90
19330;DHT22;9799;48.214;16.388;2024-03-02T07:23:48;7.60;99.90
19330;DHT22;9799;48.214;16.388;2024-03-02T07:27:12;7.60;99.90
19330;DHT22;9799;48.214;16.388;2024-03-02T07:30:33;7.70;99.90
19330;DHT22;9799;48.214;16.388;2024-03-02T07:33:54;7.60;99.90
19330;DHT22;9799;48.214;16.388;2024-03-02T07:37:15;7.70;99.90
19330;DHT22;9799;48.214;16.388;2024-03-02T07:40:36;7.70;99.90
19330;DHT22;9799;48.214;16.388;2024-03-02T07:43:59;7.60;99.90
19330;DHT22;9799;48.214;16.388;2024-03-02T07:47:20;7.50;99.90
19330;DHT22;9799;48.214;16.388;2024-03-02T07:50:41;7.50;99.90
19330;DHT22;9799;48.214;16.388;2024-03-02T07:54:03;7.60;99.90
19330;DHT22;9799;48.214;16.388;2024-03-02T07:57:24;7.40;99.90
19330;DHT22;9799;48.214;16.388;2024-03-02T08:00:47;7.50;99.90
19330;DHT22;9799;48.214;16.388;2024-03-02T08:04:09;7.50;99.90
19330;DHT22;9799;48.214;16.388;2024-03-02T08:07:30;7.50;99.90
19330;DHT22;9799;48.214;16.388;2024-03-02T08:10:51;7.50;99.90
19330;DHT22;9799;48.214;16.388;2024-03-02T08:14:12;7.60;99.90
19330;DHT22;9799;48.214;16.388;2024-03-02T08:17:35;7.70;99.90
19330;DHT22;9799;48.214;16.388;2024-03-02T08:20:56;7.90;99.90
19330;DHT22;9799;48.214;16.388;2024-03-02T08:24:17;8.00;99.90
19330;DHT22;9799;48.214;16.388;2024-03-02T08:27:40;8.20;99.90
19330;DHT22;9799;48.214;16.388;2024-03-02T08:31:01;8.30;99.90
19330;DHT22;9799;48.214;16.388;2024-03-02T08:34:23;8.40;99.90
19330;DHT22;9799;48.214;16.388;2024-03-02T08:37:44;8.60;99.90
19330;DHT22;9799;48.214;16.388;2024-03-02T08:41:06;8.60;99.90
19330;DHT22;9799;48.214;16.388;2024-03-02T08:44:28;8.60;99.90
19330;DHT22;9799;48.214;16.388;2024-03-02T08:47:49;8.70;99.90
19330;DHT22;9799;48.214;16.388;2024-03-02T08:51:12;8.70;99.90
19330;DHT22;9799;48.214;16.388;2024-03-02T08:54:33;8.80;99.90
19330;DHT22;9799;48.214;16.388;2024-03-02T08:57:55;8.80;99.90
19330;DHT22;9799;48.214;16.388;2024-03-02T09:01:17;8.80;99.90
19330;DHT22;9799;48.214;16.388;2024-03-02T09:04:39;8.90;99.90
19330;DHT22;9799;48.214;16.388;2024-03-02T09:08:01;9.10;99.90
19330;DHT22;9799;48.214;16.388;2024-03-02T09:11:23;9.10;99.90
19330;DHT22;9799;48.214;16.388;2024-03-02T09:14:45;8.90;99.90
19330;DHT22;9799;48.214;16.388;2024-03-02T09:18:06;9.00;99.90
19330;DHT22;9799;48.214;16.388;2024-03-02T09:21:27;9.10;99.90
19330;DHT22;9799;48.214;16.388;2024-03-02T09:24:51;9.40;99.90
19330;DHT22;9799;48.214;16.388;2024-03-02T09:28:12;9.60;99.90
19330;DHT22;9799;48.214;16.388;2024-03-02T09:31:38;9.50;99.90
19330;DHT22;9799;48.214;16.388;2024-03-02T09:35:00;9.50;99.90
19330;DHT22;9799;48.214;16.388;2024-03-02T09:38:21;9.50;99.90
19330;DHT22;9799;48.214;16.388;2024-03-02T09:41:43;9.70;99.90
19330;DHT22;9799;48.214;16.388;2024-03-02T09:45:06;9.70;99.90
19330;DHT22;9799;48.214;16.388;2024-03-02T09:48:27;9.80;99.90
19330;DHT22;9799;48.214;16.388;2024-03-02T09:51:49;9.80;99.90
19330;DHT22;9799;48.214;16.388;2024-03-02T09:55:11;9.80;99.90
19330;DHT22;9799;48.214;16.388;2024-03-02T09:58:34;9.90;99.90
19330;DHT22;9799;48.214;16.388;2024-03-02T10:01:56;9.90;99.90
19330;DHT22;9799;48.214;16.388;2024-03-02T10:05:25;9.90;99.90
19330;DHT22;9799;48.214;16.388;2024-03-02T10:08:47;9.90;99.90
19330;DHT22;9799;48.214;16.388;2024-03-02T10:12:10;10.00;99.90
19330;DHT22;9799;48.214;16.388;2024-03-02T10:15:34;10.10;99.90
19330;DHT22;9799;48.214;16.388;2024-03-02T10:18:55;10.10;99.90
19330;DHT22;9799;48.214;16.388;2024-03-02T10:22:17;10.10;99.90
19330;DHT22;9799;48.214;16.388;2024-03-02T10:25:38;10.20;99.90
19330;DHT22;9799;48.214;16.388;2024-03-02T10:28:59;10.30;99.90
19330;DHT22;9799;48.214;16.388;2024-03-02T10:32:23;10.30;99.90
19330;DHT22;9799;48.214;16.388;2024-03-02T10:35:45;10.40;99.90
19330;DHT22;9799;48.214;16.388;2024-03-02T10:39:07;10.50;99.90
19330;DHT22;9799;48.214;16.388;2024-03-02T10:42:28;10.60;99.90
19330;DHT22;9799;48.214;16.388;2024-03-02T10:45:49;10.60;99.90
19330;DHT22;9799;48.214;16.388;2024-03-02T10:49:13;10.60;99.90
19330;DHT22;9799;48.214;16.388;2024-03-02T10:52:34;10.70;99.90
19330;DHT22;9799;48.214;16.388;2024-03-02T10:55:58;10.80;99.90
19330;DHT22;9799;48.214;16.388;2024-03-02T10:59:27;10.80;99.90
19330;DHT22;9799;48.214;16.388;2024-03-02T11:02:51;10.70;99.90
19330;DHT22;9799;48.214;16.388;2024-03-02T11:06:14;10.90;99.90
19330;DHT22;9799;48.214;16.388;2024-03-02T11:09:38;10.90;99.90
19330;DHT22;9799;48.214;16.388;2024-03-02T11:13:04;11.00;99.90
19330;DHT22;9799;48.214;16.388;2024-03-02T11:16:32;11.00;99.90
19330;DHT22;9799;48.214;16.388;2024-03-02T11:19:55;11.10;99.90
19330;DHT22;9799;48.214;16.388;2024-03-02T11:23:18;11.10;99.90
19330;DHT22;9799;48.214;16.388;2024-03-02T11:26:39;11.20;99.90
19330;DHT22;9799;48.214;16.388;2024-03-02T11:30:00;11.30;99.90
19330;DHT22;9799;48.214;16.388;2024-03-02T11:33:24;11.30;99.90
19330;DHT22;9799;48.214;16.388;2024-03-02T11:36:47;11.40;99.90
19330;DHT22;9799;48.214;16.388;2024-03-02T11:40:10;11.30;99.90
19330;DHT22;9799;48.214;16.388;2024-03-02T11:43:31;11.40;99.90
19330;DHT22;9799;48.214;16.388;2024-03-02T11:46:53;11.40;99.90
19330;DHT22;9799;48.214;16.388;2024-03-02T11:50:28;11.40;99.90
19330;DHT22;9799;48.214;16.388;2024-03-02T11:53:50;11.40;99.90
19330;DHT22;9799;48.214;16.388;2024-03-02T11:57:14;11.50;99.90
19330;DHT22;9799;48.214;16.388;2024-03-02T12:00:35;11.30;99.90
19330;DHT22;9799;48.214;16.388;2024-03-02T12:03:58;11.40;99.90
19330;DHT22;9799;48.214;16.388;2024-03-02T12:07:22;11.40;99.90
19330;DHT22;9799;48.214;16.388;2024-03-02T12:10:56;11.40;99.90
19330;DHT22;9799;48.214;16.388;2024-03-02T12:14:18;11.40;99.90
19330;DHT22;9799;48.214;16.388;2024-03-02T12:17:39;11.40;99.90
19330;DHT22;9799;48.214;16.388;2024-03-02T12:21:00;11.40;99.90
19330;DHT22;9799;48.214;16.388;2024-03-02T12:24:26;11.40;99.90
19330;DHT22;9799;48.214;16.388;2024-03-02T12:27:48;11.40;99.90
19330;DHT22;9799;48.214;16.388;2024-03-02T12:31:11;11.50;99.90
19330;DHT22;9799;48.214;16.388;2024-03-02T12:34:33;11.60;99.90
19330;DHT22;9799;48.214;16.388;2024-03-02T12:37:54;11.70;99.90
19330;DHT22;9799;48.214;16.388;2024-03-02T12:41:15;11.80;99.90
19330;DHT22;9799;48.214;16.388;2024-03-02T12:44:37;11.80;99.90
19330;DHT22;9799;48.214;16.388;2024-03-02T12:48:00;11.90;99.90
19330;DHT22;9799;48.214;16.388;2024-03-02T12:51:21;12.00;99.90
19330;DHT22;9799;48.214;16.388;2024-03-02T12:54:42;12.10;99.90
19330;DHT22;9799;48.214;16.388;2024-03-02T12:58:04;12.10;99.90
19330;DHT22;9799;48.214;16.388;2024-03-02T13:01:25;12.20;99.90
19330;DHT22;9799;48.214;16.388;2024-03-02T13:04:53;12.30;99.90
19330;DHT22;9799;48.214;16.388;2024-03-02T13:08:15;12.20;99.90
19330;DHT22;9799;48.214;16.388;2024-03-02T13:11:36;12.20;99.90
19330;DHT22;9799;48.214;16.388;2024-03-02T13:14:58;12.20;99.90
19330;DHT22;9799;48.214;16.388;2024-03-02T13:18:19;12.20;99.90
19330;DHT22;9799;48.214;16.388;2024-03-02T13:21:42;12.20;99.90
19330;DHT22;9799;48.214;16.388;2024-03-02T13:25:04;12.30;99.90
19330;DHT22;9799;48.214;16.388;2024-03-02T13:28:25;12.30;99.90
19330;DHT22;9799;48.214;16.388;2024-03-02T13:31:47;12.30;99.90
19330;DHT22;9799;48.214;16.388;2024-03-02T13:35:08;12.20;99.90
19330;DHT22;9799;48.214;16.388;2024-03-02T13:38:32;12.10;99.90
19330;DHT22;9799;48.214;16.388;2024-03-02T13:41:53;12.10;99.90
19330;DHT22;9799;48.214;16.388;2024-03-02T13:45:22;12.20;99.90
19330;DHT22;9799;48.214;16.388;2024-03-02T13:48:43;12.20;99.90
19330;DHT22;9799;48.214;16.388;2024-03-02T13:52:05;12.20;99.90
19330;DHT22;9799;48.214;16.388;2024-03-02T13:55:32;12.20;99.90
19330;DHT22;9799;48.214;16.388;2024-03-02T13:58:53;12.20;99.90
19330;DHT22;9799;48.214;16.388;2024-03-02T14:02:15;12.30;99.90
19330;DHT22;9799;48.214;16.388;2024-03-02T14:05:37;12.30;99.90
19330;DHT22;9799;48.214;16.388;2024-03-02T14:08:58;12.30;99.90
19330;DHT22;9799;48.214;16.388;2024-03-02T14:12:21;12.30;99.90
19330;DHT22;9799;48.214;16.388;2024-03-02T14:15:42;12.30;99.90
19330;DHT22;9799;48.214;16.388;2024-03-02T14:19:03;12.30;99.90
19330;DHT22;9799;48.214;16.388;2024-03-02T14:22:25;12.30;99.90
19330;DHT22;9799;48.214;16.388;2024-03-02T14:25:46;12.20;99.90
19330;DHT22;9799;48.214;16.388;2024-03-02T14:29:08;12.20;99.90
19330;DHT22;9799;48.214;16.388;2024-03-02T14:32:30;12.10;99.90
19330;DHT22;9799;48.214;16.388;2024-03-02T14:35:51;12.00;99.90
19330;DHT22;9799;48.214;16.388;2024-03-02T14:39:12;12.00;99.90
19330;DHT22;9799;48.214;16.388;2024-03-02T14:42:33;11.90;99.90
19330;DHT22;9799;48.214;16.388;2024-03-02T14:45:56;12.00;99.90
19330;DHT22;9799;48.214;16.388;2024-03-02T14:49:18;12.00;99.90
19330;DHT22;9799;48.214;16.388;2024-03-02T14:52:39;12.00;99.90
19330;DHT22;9799;48.214;16.388;2024-03-02T14:56:00;12.00;99.90
19330;DHT22;9799;48.214;16.388;2024-03-02T14:59:21;11.90;99.90
19330;DHT22;9799;48.214;16.388;2024-03-02T15:02:44;11.90;99.90
19330;DHT22;9799;48.214;16.388;2024-03-02T15:06:06;11.90;99.90
19330;DHT22;9799;48.214;16.388;2024-03-02T15:09:27;11.80;99.90
19330;DHT22;9799;48.214;16.388;2024-03-02T15:12:48;11.70;99.90
19330;DHT22;9799;48.214;16.388;2024-03-02T15:16:09;11.70;99.90
19330;DHT22;9799;48.214;16.388;2024-03-02T15:19:32;11.70;99.90
19330;DHT22;9799;48.214;16.388;2024-03-02T15:22:53;11.60;99.90
19330;DHT22;9799;48.214;16.388;2024-03-02T15:26:14;11.50;99.90
19330;DHT22;9799;48.214;16.388;2024-03-02T15:29:36;11.60;99.90
19330;DHT22;9799;48.214;16.388;2024-03-02T15:32:57;11.70;99.90
19330;DHT22;9799;48.214;16.388;2024-03-02T15:36:19;11.60;99.90
19330;DHT22;9799;48.214;16.388;2024-03-02T15:39:41;11.60;99.90
19330;DHT22;9799;48.214;16.388;2024-03-02T15:43:04;11.60;99.90
19330;DHT22;9799;48.214;16.388;2024-03-02T15:46:25;11.60;99.90
19330;DHT22;9799;48.214;16.388;2024-03-02T15:49:46;11.60;99.90
19330;DHT22;9799;48.214;16.388;2024-03-02T15:53:08;11.60;99.90
19330;DHT22;9799;48.214;16.388;2024-03-02T15:56:30;11.60;99.90
19330;DHT22;9799;48.214;16.388;2024-03-02T15:59:51;11.60;99.90
19330;DHT22;9799;48.214;16.388;2024-03-02T16:03:12;11.50;99.90
19330;DHT22;9799;48.214;16.388;2024-03-02T16:06:33;11.50;99.90
19330;DHT22;9799;48.214;16.388;2024-03-02T16:09:56;11.40;99.90
19330;DHT22;9799;48.214;16.388;2024-03-02T16:13:17;11.50;99.90
19330;DHT22;9799;48.214;16.388;2024-03-02T16:16:38;11.50;99.90
19330;DHT22;9799;48.214;16.388;2024-03-02T16:20:00;11.40;99.90
19330;DHT22;9799;48.214;16.388;2024-03-02T16:23:25;11.30;99.90
19330;DHT22;9799;48.214;16.388;2024-03-02T16:26:48;11.30;99.90
19330;DHT22;9799;48.214;16.388;2024-03-02T16:30:10;11.30;99.90
19330;DHT22;9799;48.214;16.388;2024-03-02T16:33:31;11.20;99.90
19330;DHT22;9799;48.214;16.388;2024-03-02T16:36:53;11.20;99.90
19330;DHT22;9799;48.214;16.388;2024-03-02T16:40:14;11.20;99.90
19330;DHT22;9799;48.214;16.388;2024-03-02T16:43:37;11.20;99.90
19330;DHT22;9799;48.214;16.388;2024-03-02T16:46:58;11.10;99.90
19330;DHT22;9799;48.214;16.388;2024-03-02T16:50:19;11.10;99.90
19330;DHT22;9799;48.214;16.388;2024-03-02T16:53:40;11.00;99.90
19330;DHT22;9799;48.214;16.388;2024-03-02T16:57:02;11.00;99.90
19330;DHT22;9799;48.214;16.388;2024-03-02T17:00:24;11.00;99.90
19330;DHT22;9799;48.214;16.388;2024-03-02T17:03:45;10.90;99.90
19330;DHT22;9799;48.214;16.388;2024-03-02T17:07:07;10.90;99.90
19330;DHT22;9799;48.214;16.388;2024-03-02T17:10:28;10.90;99.90
19330;DHT22;9799;48.214;16.388;2024-03-02T17:13:49;10.90;99.90
19330;DHT22;9799;48.214;16.388;2024-03-02T17:17:18;10.90;99.90
19330;DHT22;9799;48.214;16.388;2024-03-02T17:20:39;10.90;99.90
19330;DHT22;9799;48.214;16.388;2024-03-02T17:24:00;11.00;99.90
19330;DHT22;9799;48.214;16.388;2024-03-02T17:27:22;11.00;99.90
19330;DHT22;9799;48.214;16.388;2024-03-02T17:30:44;11.00;99.90
19330;DHT22;9799;48.214;16.388;2024-03-02T17:34:06;10.90;99.90
19330;DHT22;9799;48.214;16.388;2024-03-02T17:37:27;10.80;99.90
19330;DHT22;9799;48.214;16.388;2024-03-02T17:40:50;10.70;99.90
19330;DHT22;9799;48.214;16.388;2024-03-02T17:44:11;10.60;99.90
19330;DHT22;9799;48.214;16.388;2024-03-02T17:47:32;10.60;99.90
19330;DHT22;9799;48.214;16.388;2024-03-02T17:50:55;10.60;99.90
19330;DHT22;9799;48.214;16.388;2024-03-02T17:54:16;10.60;99.90
19330;DHT22;9799;48.214;16.388;2024-03-02T17:57:37;10.50;99.90
19330;DHT22;9799;48.214;16.388;2024-03-02T18:00:58;10.50;99.90
19330;DHT22;9799;48.214;16.388;2024-03-02T18:04:19;10.50;99.90
19330;DHT22;9799;48.214;16.388;2024-03-02T18:07:43;10.50;99.90
19330;DHT22;9799;48.214;16.388;2024-03-02T18:11:04;10.50;99.90
19330;DHT22;9799;48.214;16.388;2024-03-02T18:14:26;10.50;99.90
19330;DHT22;9799;48.214;16.388;2024-03-02T18:17:47;10.40;99.90
19330;DHT22;9799;48.214;16.388;2024-03-02T18:21:09;10.30;99.90
19330;DHT22;9799;48.214;16.388;2024-03-02T18:24:32;10.40;99.90
19330;DHT22;9799;48.214;16.388;2024-03-02T18:27:53;10.40;99.90
19330;DHT22;9799;48.214;16.388;2024-03-02T18:31:14;10.40;99.90
19330;DHT22;9799;48.214;16.388;2024-03-02T18:34:39;10.40;99.90
19330;DHT22;9799;48.214;16.388;2024-03-02T18:38:00;10.30;99.90
19330;DHT22;9799;48.214;16.388;2024-03-02T18:41:22;10.30;99.90
19330;DHT22;9799;48.214;16.388;2024-03-02T18:44:44;10.30;99.90
19330;DHT22;9799;48.214;16.388;2024-03-02T18:48:07;10.30;99.90
19330;DHT22;9799;48.214;16.388;2024-03-02T18:51:28;10.20;99.90
19330;DHT22;9799;48.214;16.388;2024-03-02T18:54:50;10.20;99.90
19330;DHT22;9799;48.214;16.388;2024-03-02T18:58:12;10.20;99.90
19330;DHT22;9799;48.214;16.388;2024-03-02T19:01:34;10.20;99.90
19330;DHT22;9799;48.214;16.388;2024-03-02T19:04:55;10.20;99.90
19330;DHT22;9799;48.214;16.388;2024-03-02T19:08:16;10.20;99.90
19330;DHT22;9799;48.214;16.388;2024-03-02T19:11:39;10.20;99.90
19330;DHT22;9799;48.214;16.388;2024-03-02T19:15:02;10.20;99.90
19330;DHT22;9799;48.214;16.388;2024-03-02T19:18:23;10.20;99.90
19330;DHT22;9799;48.214;16.388;2024-03-02T19:21:45;10.20;99.90
19330;DHT22;9799;48.214;16.388;2024-03-02T19:25:10;10.30;99.90
19330;DHT22;9799;48.214;16.388;2024-03-02T19:28:33;10.20;99.90
19330;DHT22;9799;48.214;16.388;2024-03-02T19:31:55;10.30;99.90
19330;DHT22;9799;48.214;16.388;2024-03-02T19:35:17;10.30;99.90
19330;DHT22;9799;48.214;16.388;2024-03-02T19:38:38;10.30;99.90
19330;DHT22;9799;48.214;16.388;2024-03-02T19:41:59;10.30;99.90
19330;DHT22;9799;48.214;16.388;2024-03-02T19:45:21;10.30;99.90
19330;DHT22;9799;48.214;16.388;2024-03-02T19:48:43;10.20;99.90
19330;DHT22;9799;48.214;16.388;2024-03-02T19:52:05;10.20;99.90
19330;DHT22;9799;48.214;16.388;2024-03-02T19:55:26;10.30;99.90
19330;DHT22;9799;48.214;16.388;2024-03-02T19:58:50;10.30;99.90
19330;DHT22;9799;48.214;16.388;2024-03-02T20:02:11;10.40;99.90
19330;DHT22;9799;48.214;16.388;2024-03-02T20:05:33;10.30;99.90
19330;DHT22;9799;48.214;16.388;2024-03-02T20:08:55;10.20;99.90
19330;DHT22;9799;48.214;16.388;2024-03-02T20:12:16;10.20;99.90
19330;DHT22;9799;48.214;16.388;2024-03-02T20:15:37;10.10;99.90
19330;DHT22;9799;48.214;16.388;2024-03-02T20:19:00;10.10;99.90
19330;DHT22;9799;48.214;16.388;2024-03-02T20:22:23;10.20;99.90
19330;DHT22;9799;48.214;16.388;2024-03-02T20:25:45;10.10;99.90
19330;DHT22;9799;48.214;16.388;2024-03-02T20:29:06;10.10;99.90
19330;DHT22;9799;48.214;16.388;2024-03-02T20:32:27;10.00;99.90
19330;DHT22;9799;48.214;16.388;2024-03-02T20:35:48;10.00;99.90
19330;DHT22;9799;48.214;16.388;2024-03-02T20:39:11;9.90;99.90
19330;DHT22;9799;48.214;16.388;2024-03-02T20:42:32;10.00;99.90
19330;DHT22;9799;48.214;16.388;2024-03-02T20:45:53;9.90;99.90
19330;DHT22;9799;48.214;16.388;2024-03-02T20:49:15;9.90;99.90
19330;DHT22;9799;48.214;16.388;2024-03-02T20:52:36;9.90;99.90
19330;DHT22;9799;48.214;16.388;2024-03-02T20:55:58;9.80;99.90
19330;DHT22;9799;48.214;16.388;2024-03-02T20:59:20;9.90;99.90
19330;DHT22;9799;48.214;16.388;2024-03-02T21:02:41;10.00;99.90
19330;DHT22;9799;48.214;16.388;2024-03-02T21:06:02;9.90;99.90
19330;DHT22;9799;48.214;16.388;2024-03-02T21:09:24;9.90;99.90
19330;DHT22;9799;48.214;16.388;2024-03-02T21:12:46;9.90;99.90
19330;DHT22;9799;48.214;16.388;2024-03-02T21:16:08;9.80;99.90
19330;DHT22;9799;48.214;16.388;2024-03-02T21:19:29;9.90;99.90
19330;DHT22;9799;48.214;16.388;2024-03-02T21:22:50;9.90;99.90
19330;DHT22;9799;48.214;16.388;2024-03-02T21:26:11;9.80;99.90